Time;durP1;ratioP1;P1;durP2;ratioP2;P2;SDS_P1;SDS_P2;PMS_P1;PMS_P2;Temp;Humidity;BMP_temperature;BMP_pressure;BME280_temperature;BME280_humidity;BME280_pressure;Samples;Min_cycle;Max_cycle;Signal;HPM_P1;HPM_P2
2022/09/04 00:03:44;;;;;;;2.75;1.30;;;;;;;;;;10404132;28;19972;-63
2022/09/04 00:09:06;;;;;;;3.42;1.30;;;;;;;;;;10351848;28;20507;-62
2022/09/04 00:14:36;;;;;;;4.60;1.60;;;;;;;;;;10364855;28;20046;-66
2022/09/04 00:20:01;;;;;;;1.70;1.33;;;;;;;;;;10352344;28;20057;-61
2022/09/04 00:25:15;;;;;;;1.88;1.60;;;;;;;;;;10360492;28;20066;-67
2022/09/04 00:30:19;;;;;;;1.85;1.35;;;;;;;;;;10343255;28;20045;-67
2022/09/04 00:35:23;;;;;;;2.35;1.65;;;;;;;;;;10359066;28;20531;-64
2022/09/04 00:40:41;;;;;;;2.47;1.35;;;;;;;;;;10400224;28;20484;-54
2022/09/04 00:46:03;;;;;;;2.53;1.30;;;;;;;;;;10410126;28;20026;-55
2022/09/04 00:51:16;;;;;;;1.50;1.40;;;;;;;;;;10424699;28;20037;-50
2022/09/04 00:56:52;;;;;;;4.97;1.55;;;;;;;;;;10420162;28;20378;-52
2022/09/04 01:01:57;;;;;;;2.83;1.80;;;;;;;;;;10422945;28;20500;-52
2022/09/04 01:07:21;;;;;;;3.35;1.50;;;;;;;;;;10410934;28;20057;-50
2022/09/04 01:12:22;;;;;;;2.22;1.50;;;;;;;;;;10400377;28;20508;-51
2022/09/04 01:17:40;;;;;;;2.00;1.30;;;;;;;;;;10396273;28;20123;-50
2022/09/04 01:23:05;;;;;;;2.03;1.40;;;;;;;;;;10406060;28;20037;-60
2022/09/04 01:28:12;;;;;;;1.90;1.52;;;;;;;;;;10383105;28;20032;-64
2022/09/04 01:33:22;;;;;;;1.65;1.40;;;;;;;;;;10422232;28;20459;-65
2022/09/04 01:38:58;;;;;;;1.83;1.40;;;;;;;;;;10436444;28;20034;-65
2022/09/04 01:43:59;;;;;;;1.40;1.20;;;;;;;;;;10422642;28;20024;-64
2022/09/04 01:49:12;;;;;;;1.73;1.30;;;;;;;;;;10421058;28;20022;-56
2022/09/04 01:54:18;;;;;;;1.15;1.05;;;;;;;;;;10397394;28;20033;-63
2022/09/04 01:59:33;;;;;;;1.42;1.30;;;;;;;;;;10384717;28;20576;-65
2022/09/04 02:04:52;;;;;;;2.33;1.48;;;;;;;;;;10412194;28;20041;-65
2022/09/04 02:10:02;;;;;;;4.20;1.50;;;;;;;;;;10417558;28;20022;-65
2022/09/04 02:15:18;;;;;;;2.88;1.63;;;;;;;;;;10422179;28;20037;-64
2022/09/04 02:20:28;;;;;;;2.80;1.20;;;;;;;;;;10426373;28;20113;-60
2022/09/04 02:25:35;;;;;;;2.47;1.50;;;;;;;;;;10419306;28;20049;-59
2022/09/04 02:30:47;;;;;;;5.55;1.52;;;;;;;;;;10404714;28;20033;-64
2022/09/04 02:36:04;;;;;;;2.13;1.23;;;;;;;;;;10402857;28;20025;-64
2022/09/04 02:41:05;;;;;;;1.75;1.15;;;;;;;;;;10412467;28;20037;-56
2022/09/04 02:46:34;;;;;;;1.43;1.27;;;;;;;;;;10421433;28;20644;-63
2022/09/04 02:52:03;;;;;;;1.35;1.00;;;;;;;;;;10413825;28;20025;-64
2022/09/04 02:57:46;;;;;;;1.30;1.20;;;;;;;;;;10419195;28;20171;-64
2022/09/04 03:02:59;;;;;;;1.13;1.00;;;;;;;;;;10429405;28;20546;-58
2022/09/04 03:08:17;;;;;;;5.30;1.20;;;;;;;;;;10407075;28;20022;-64
2022/09/04 03:13:33;;;;;;;1.83;1.15;;;;;;;;;;10420065;28;20037;-60
2022/09/04 03:19:10;;;;;;;3.38;1.20;;;;;;;;;;10416494;28;20041;-50
2022/09/04 03:24:38;;;;;;;3.17;1.52;;;;;;;;;;10411354;28;20553;-48
2022/09/04 03:29:42;;;;;;;1.67;1.20;;;;;;;;;;10420415;28;20511;-50
2022/09/04 03:34:54;;;;;;;1.55;1.20;;;;;;;;;;10406707;28;20022;-62
2022/09/04 03:40:32;;;;;;;1.08;0.95;;;;;;;;;;10409911;28;20029;-66
2022/09/04 03:46:00;;;;;;;1.77;1.20;;;;;;;;;;10411208;28;20021;-63
2022/09/04 03:51:24;;;;;;;;;;;;;;;;;;10415757;28;20041;-63
2022/09/04 03:56:43;;;;;;;1.10;1.00;;;;;;;;;;10423498;28;20335;-62
2022/09/04 04:02:16;;;;;;;2.40;1.30;;;;;;;;;;10442701;28;20480;-50
2022/09/04 04:07:26;;;;;;;2.95;1.52;;;;;;;;;;10413914;28;20049;-63
2022/09/04 04:12:51;;;;;;;1.77;1.10;;;;;;;;;;10439391;28;20036;-64
2022/09/04 04:18:25;;;;;;;2.25;1.20;;;;;;;;;;10414591;28;20041;-50
2022/09/04 04:24:01;;;;;;;5.82;1.40;;;;;;;;;;10395958;28;20505;-57
2022/09/04 04:29:33;;;;;;;4.50;1.30;;;;;;;;;;10409997;28;20040;-56
2022/09/04 04:34:42;;;;;;;2.08;1.30;;;;;;;;;;10418004;28;20045;-53
2022/09/04 04:39:51;;;;;;;1.23;1.13;;;;;;;;;;10428376;28;20037;-52
2022/09/04 04:50:46;;;;;;;2.42;1.27;;;;;;;;;;10401649;28;20532;-52
2022/09/04 04:55:55;;;;;;;3.15;1.20;;;;;;;;;;10408425;28;20056;-53
2022/09/04 05:01:08;;;;;;;1.25;1.15;;;;;;;;;;10399767;28;20032;-50
2022/09/04 05:06:08;;;;;;;1.05;0.98;;;;;;;;;;10423683;28;20109;-53
2022/09/04 05:11:24;;;;;;;2.17;1.40;;;;;;;;;;10415266;28;20112;-49
2022/09/04 05:16:34;;;;;;;1.35;1.10;;;;;;;;;;10423085;28;20057;-51
2022/09/04 05:21:37;;;;;;;5.22;1.10;;;;;;;;;;10409220;28;20018;-50
2022/09/04 05:26:45;;;;;;;0.98;0.93;;;;;;;;;;10409354;28;20053;-50
2022/09/04 05:32:24;;;;;;;1.08;0.90;;;;;;;;;;10406480;28;20036;-53
2022/09/04 05:37:39;;;;;;;1.67;1.15;;;;;;;;;;10416614;28;20073;-50
2022/09/04 05:42:57;;;;;;;1.48;1.10;;;;;;;;;;10397067;28;20034;-54
2022/09/04 05:48:23;;;;;;;3.03;1.52;;;;;;;;;;10396935;28;20425;-52
2022/09/04 05:54:04;;;;;;;1.35;1.25;;;;;;;;;;10405846;28;20029;-52
2022/09/04 05:59:28;;;;;;;1.20;1.00;;;;;;;;;;10407252;28;20041;-49
2022/09/04 06:04:52;;;;;;;0.88;0.88;;;;;;;;;;10407520;28;20033;-51
2022/09/04 06:10:21;;;;;;;2.00;1.17;;;;;;;;;;10392653;28;20044;-49
2022/09/04 06:15:59;;;;;;;1.10;1.00;;;;;;;;;;10417364;28;20017;-51
2022/09/04 06:21:09;;;;;;;3.83;1.15;;;;;;;;;;10415947;28;20032;-50
2022/09/04 06:26:43;;;;;;;6.57;1.40;;;;;;;;;;10431236;28;20105;-48
2022/09/04 06:31:52;;;;;;;2.05;1.10;;;;;;;;;;10419378;28;20125;-54
2022/09/04 06:37:24;;;;;;;1.83;1.20;;;;;;;;;;10415480;28;20060;-50
2022/09/04 06:42:35;;;;;;;6.00;1.23;;;;;;;;;;10412565;28;20583;-55
2022/09/04 06:47:50;;;;;;;4.30;2.45;;;;;;;;;;10389471;28;20033;-54
2022/09/04 06:53:58;;;;;;;3.28;2.28;;;;;;;;;;10422703;28;20033;-49
2022/09/04 06:59:36;;;;;;;4.28;3.00;;;;;;;;;;10263781;28;20523;-56
2022/09/04 07:04:50;;;;;;;8.25;3.15;;;;;;;;;;10278661;28;20035;-54
2022/09/04 07:10:29;;;;;;;6.50;2.80;;;;;;;;;;10269307;28;20042;-55
2022/09/04 07:15:47;;;;;;;7.18;2.55;;;;;;;;;;10275570;28;20039;-58
2022/09/04 07:21:14;;;;;;;3.63;2.80;;;;;;;;;;10266577;28;20051;-56
2022/09/04 07:26:37;;;;;;;2.83;2.28;;;;;;;;;;10268354;28;20054;-60
2022/09/04 07:31:45;;;;;;;6.03;2.55;;;;;;;;;;10404518;28;20028;-59
2022/09/04 07:37:10;;;;;;;2.92;2.30;;;;;;;;;;10405680;28;20069;-60
2022/09/04 07:42:29;;;;;;;2.47;1.90;;;;;;;;;;10408763;28;20049;-60
2022/09/04 07:47:37;;;;;;;4.05;2.28;;;;;;;;;;10407358;28;20385;-55
2022/09/04 07:52:57;;;;;;;5.32;1.95;;;;;;;;;;10412396;28;20037;-56
2022/09/04 07:58:06;;;;;;;2.15;1.83;;;;;;;;;;10408118;28;20061;-60
2022/09/04 08:03:31;;;;;;;3.60;2.28;;;;;;;;;;10400979;28;20025;-65
2022/09/04 08:09:10;;;;;;;2.95;1.98;;;;;;;;;;10409105;28;20029;-68
2022/09/04 08:14:51;;;;;;;2.17;1.80;;;;;;;;;;10407433;28;20453;-68
2022/09/04 08:20:08;;;;;;;1.98;1.70;;;;;;;;;;10400712;28;20090;-68
2022/09/04 08:25:18;;;;;;;2.70;1.90;;;;;;;;;;10407450;28;20033;-69
2022/09/04 08:30:20;;;;;;;4.20;1.95;;;;;;;;;;10406098;28;20029;-66
2022/09/04 08:35:44;;;;;;;2.35;1.48;;;;;;;;;;10418610;28;20439;-68
2022/09/04 08:41:06;;;;;;;4.10;1.50;;;;;;;;;;10400344;28;20049;-67
2022/09/04 08:46:47;;;;;;;2.97;1.70;;;;;;;;;;10408073;28;20036;-69
2022/09/04 08:52:17;;;;;;;6.22;1.77;;;;;;;;;;10406808;28;20561;-51
2022/09/04 08:57:59;;;;;;;2.13;1.55;;;;;;;;;;10405006;28;20049;-51
2022/09/04 09:03:14;;;;;;;1.83;1.65;;;;;;;;;;10412994;28;20022;-52
2022/09/04 09:08:27;;;;;;;3.75;2.03;;;;;;;;;;10411330;28;20036;-53
2022/09/04 09:14:07;;;;;;;2.05;1.58;;;;;;;;;;10423032;28;20464;-52
2022/09/04 09:19:19;;;;;;;3.35;1.98;;;;;;;;;;10418936;28;20029;-51
2022/09/04 09:24:31;;;;;;;1.60;1.42;;;;;;;;;;10404570;28;20038;-53
2022/09/04 09:30:08;;;;;;;3.72;1.60;;;;;;;;;;10404617;28;20531;-55
2022/09/04 09:35:09;;;;;;;5.17;1.40;;;;;;;;;;10413465;28;20480;-53
2022/09/04 09:40:09;;;;;;;6.00;1.77;;;;;;;;;;10410118;28;20026;-64
2022/09/04 09:45:47;;;;;;;2.63;1.93;;;;;;;;;;10423329;28;20495;-59
2022/09/04 09:51:32;;;;;;;2.22;1.52;;;;;;;;;;10412845;28;20386;-65
2022/09/04 09:57:09;;;;;;;3.13;1.63;;;;;;;;;;10406330;28;20040;-60
2022/09/04 10:02:36;;;;;;;3.10;1.42;;;;;;;;;;10393213;28;20029;-59
2022/09/04 10:08:11;;;;;;;2.97;1.70;;;;;;;;;;10410864;28;20024;-69
2022/09/04 10:13:44;;;;;;;2.05;1.70;;;;;;;;;;10421619;28;20493;-68
2022/09/04 10:19:03;;;;;;;2.55;1.70;;;;;;;;;;10405545;28;20034;-61
2022/09/04 10:24:28;;;;;;;2.13;1.40;;;;;;;;;;10424617;28;20512;-68
2022/09/04 10:29:43;;;;;;;2.22;1.83;;;;;;;;;;10417994;28;20029;-68
2022/09/04 10:35:03;;;;;;;4.93;1.58;;;;;;;;;;10398467;28;20021;-69
2022/09/04 10:40:35;;;;;;;4.97;2.30;;;;;;;;;;10411089;28;20060;-69
2022/09/04 10:45:45;;;;;;;4.35;1.73;;;;;;;;;;10402931;28;20094;-69
2022/09/04 10:51:13;;;;;;;4.78;1.80;;;;;;;;;;10388201;28;20033;-65
2022/09/04 10:56:34;;;;;;;;;;;;;;;;;;10405857;28;20041;-64
2022/09/04 11:01:58;;;;;;;5.78;1.92;;;;;;;;;;10403650;28;19917;-64
2022/09/04 11:07:40;;;;;;;4.85;1.85;;;;;;;;;;10407315;28;20029;-55
2022/09/04 11:12:57;;;;;;;4.75;1.70;;;;;;;;;;10412757;28;20044;-58
2022/09/04 11:18:12;;;;;;;1.58;1.40;;;;;;;;;;10409062;28;20572;-63
2022/09/04 11:24:01;;;;;;;3.58;1.70;;;;;;;;;;10427683;28;20036;-51
2022/09/04 11:29:20;;;;;;;3.05;1.80;;;;;;;;;;10414885;28;20096;-55
2022/09/04 11:34:42;;;;;;;3.33;2.03;;;;;;;;;;10416097;28;20036;-50
2022/09/04 11:40:23;;;;;;;1.75;1.60;;;;;;;;;;10398740;28;20038;-49
2022/09/04 11:45:29;;;;;;;2.03;1.67;;;;;;;;;;10397622;28;20046;-50
2022/09/04 11:51:39;;;;;;;2.20;1.85;;;;;;;;;;10391571;28;20025;-54
2022/09/04 11:57:04;;;;;;;1.88;1.77;;;;;;;;;;10396728;28;20072;-55
2022/09/04 12:02:41;;;;;;;1.83;1.73;;;;;;;;;;10405488;28;20502;-52
2022/09/04 12:07:58;;;;;;;2.13;1.80;;;;;;;;;;10408357;28;20025;-50
2022/09/04 12:13:32;;;;;;;3.67;1.80;;;;;;;;;;10409074;28;20038;-52
2022/09/04 12:18:56;;;;;;;2.88;1.95;;;;;;;;;;10396181;28;20055;-51
2022/09/04 12:24:29;;;;;;;2.38;2.00;;;;;;;;;;10423637;28;20513;-49
2022/09/04 12:30:01;;;;;;;2.65;1.80;;;;;;;;;;10403220;28;20606;-49
2022/09/04 12:35:01;;;;;;;3.63;1.90;;;;;;;;;;10403687;28;20029;-50
2022/09/04 12:40:20;;;;;;;2.07;1.70;;;;;;;;;;10410160;28;20040;-52
2022/09/04 12:45:44;;;;;;;2.75;1.95;;;;;;;;;;10415359;28;20796;-50
2022/09/04 12:50:47;;;;;;;2.33;1.80;;;;;;;;;;10414515;28;20627;-52
2022/09/04 12:55:57;;;;;;;2.92;1.90;;;;;;;;;;10411292;28;20045;-55
2022/09/04 13:01:18;;;;;;;2.33;2.10;;;;;;;;;;10399878;28;20033;-57
2022/09/04 13:06:38;;;;;;;3.97;1.63;;;;;;;;;;10409449;28;20451;-64
2022/09/04 13:11:52;;;;;;;4.45;1.70;;;;;;;;;;10394264;28;20055;-52
2022/09/04 13:17:02;;;;;;;2.65;1.75;;;;;;;;;;10408893;28;20033;-49
2022/09/04 13:22:12;;;;;;;3.35;1.63;;;;;;;;;;10422215;28;20057;-49
2022/09/04 13:27:42;;;;;;;3.28;2.03;;;;;;;;;;10417287;28;20108;-50
2022/09/04 13:32:58;;;;;;;1.92;1.73;;;;;;;;;;10398739;28;20032;-49
2022/09/04 13:38:04;;;;;;;4.35;1.92;;;;;;;;;;10411081;28;20024;-49
2022/09/04 13:43:48;;;;;;;2.45;2.03;;;;;;;;;;10407203;28;20036;-50
2022/09/04 13:49:24;;;;;;;2.83;1.70;;;;;;;;;;10403121;28;20043;-51
2022/09/04 13:54:53;;;;;;;2.38;2.10;;;;;;;;;;10401591;28;20050;-53
2022/09/04 14:00:01;;;;;;;3.28;1.83;;;;;;;;;;10415253;28;20040;-52
2022/09/04 14:05:07;;;;;;;2.00;1.80;;;;;;;;;;10419454;28;20179;-51
2022/09/04 14:10:19;;;;;;;2.90;1.70;;;;;;;;;;10432143;28;20025;-50
2022/09/04 14:15:44;;;;;;;7.70;2.00;;;;;;;;;;10444933;28;20488;-50
2022/09/04 14:20:56;;;;;;;1.70;1.60;;;;;;;;;;10408988;28;20077;-49
2022/09/04 14:26:38;;;;;;;1.65;1.50;;;;;;;;;;10440929;28;20391;-50
2022/09/04 14:31:51;;;;;;;2.58;1.63;;;;;;;;;;10418502;28;20021;-50
2022/09/04 14:37:08;;;;;;;2.00;1.52;;;;;;;;;;10435232;28;20056;-49
2022/09/04 14:42:18;;;;;;;3.17;1.60;;;;;;;;;;10413281;28;20027;-49
2022/09/04 14:47:46;;;;;;;1.98;1.63;;;;;;;;;;10437820;28;20449;-49
2022/09/04 14:52:53;;;;;;;1.60;1.50;;;;;;;;;;10400760;28;20041;-49
2022/09/04 14:57:58;;;;;;;2.00;1.80;;;;;;;;;;10421521;28;20037;-50
2022/09/04 15:03:14;;;;;;;1.90;1.67;;;;;;;;;;10417010;28;20029;-49
2022/09/04 15:08:27;;;;;;;3.63;1.70;;;;;;;;;;10414190;28;20018;-50
2022/09/04 15:13:27;;;;;;;1.98;1.63;;;;;;;;;;10415522;28;20025;-50
2022/09/04 15:18:42;;;;;;;1.77;1.67;;;;;;;;;;10432114;28;20098;-53
2022/09/04 15:23:51;;;;;;;4.53;1.75;;;;;;;;;;10407185;28;20033;-50
2022/09/04 15:29:04;;;;;;;3.45;1.63;;;;;;;;;;10426257;28;20029;-52
2022/09/04 15:34:18;;;;;;;2.15;1.73;;;;;;;;;;10403668;28;20034;-53
2022/09/04 15:39:35;;;;;;;2.65;1.58;;;;;;;;;;10419633;28;20041;-55
2022/09/04 15:44:43;;;;;;;2.25;1.67;;;;;;;;;;10402107;28;20025;-57
2022/09/04 15:49:43;;;;;;;;;;;;;;;;;;10397772;28;20029;-53
2022/09/04 15:54:43;;;;;;;1.90;1.80;;;;;;;;;;10386917;28;20302;-51
2022/09/04 16:00:10;;;;;;;4.47;1.83;;;;;;;;;;10398521;28;20128;-53
2022/09/04 16:05:15;;;;;;;2.72;1.75;;;;;;;;;;10392783;28;20672;-53
2022/09/04 16:10:24;;;;;;;2.53;1.80;;;;;;;;;;10424885;28;20481;-53
2022/09/04 16:15:33;;;;;;;3.10;2.05;;;;;;;;;;10415946;28;20029;-56
2022/09/04 16:20:45;;;;;;;1.88;1.77;;;;;;;;;;10411925;28;20033;-56
2022/09/04 16:25:51;;;;;;;2.40;2.05;;;;;;;;;;10407570;28;20080;-56
2022/09/04 16:30:58;;;;;;;3.50;2.00;;;;;;;;;;10417254;28;20037;-70
2022/09/04 16:36:14;;;;;;;3.20;1.92;;;;;;;;;;10429244;28;20480;-67
2022/09/04 16:41:24;;;;;;;3.85;1.92;;;;;;;;;;10411951;28;20117;-59
2022/09/04 16:46:30;;;;;;;4.55;2.08;;;;;;;;;;10416240;28;20037;-70
2022/09/04 16:51:37;;;;;;;1.90;1.80;;;;;;;;;;10410587;28;20033;-70
2022/09/04 16:56:41;;;;;;;3.00;2.00;;;;;;;;;;10409493;28;20080;-68
2022/09/04 17:01:56;;;;;;;8.30;2.25;;;;;;;;;;10412685;28;20036;-63
2022/09/04 17:07:07;;;;;;;2.45;2.05;;;;;;;;;;10403162;28;20029;-68
2022/09/04 17:12:34;;;;;;;2.63;1.90;;;;;;;;;;10403403;28;20045;-71
2022/09/04 17:17:40;;;;;;;2.15;1.83;;;;;;;;;;10403265;28;20030;-64
2022/09/04 17:23:05;;;;;;;3.08;2.00;;;;;;;;;;10419317;28;20033;-56
2022/09/04 17:28:11;;;;;;;5.35;2.00;;;;;;;;;;10401462;28;20496;-62
2022/09/04 17:33:28;;;;;;;3.83;2.30;;;;;;;;;;10406729;28;20037;-69
2022/09/04 17:38:51;;;;;;;3.43;2.10;;;;;;;;;;10396649;28;20037;-68
2022/09/04 17:44:09;;;;;;;16.83;2.22;;;;;;;;;;10407927;28;20036;-63
2022/09/04 17:49:22;;;;;;;5.90;2.45;;;;;;;;;;10412076;28;20079;-67
2022/09/04 17:54:26;;;;;;;9.75;2.40;;;;;;;;;;10405584;28;20050;-66
2022/09/04 17:59:43;;;;;;;11.70;2.97;;;;;;;;;;10410009;28;20437;-56
2022/09/04 18:04:50;;;;;;;6.80;2.70;;;;;;;;;;10401320;28;20040;-66
2022/09/04 18:10:22;;;;;;;6.47;2.75;;;;;;;;;;10404678;28;20030;-51
2022/09/04 18:15:38;;;;;;;7.43;2.58;;;;;;;;;;10404714;28;20386;-67
2022/09/04 18:20:52;;;;;;;5.55;2.65;;;;;;;;;;10404635;28;20033;-51
2022/09/04 18:26:08;;;;;;;5.47;2.67;;;;;;;;;;10413248;28;20035;-52
2022/09/04 18:31:22;;;;;;;8.27;2.90;;;;;;;;;;10411032;28;20140;-51
2022/09/04 18:36:42;;;;;;;9.05;2.58;;;;;;;;;;10406892;28;20025;-51
2022/09/04 18:42:11;;;;;;;7.57;2.50;;;;;;;;;;10407091;28;20473;-51
2022/09/04 18:47:37;;;;;;;5.38;2.35;;;;;;;;;;10391642;28;20026;-60
2022/09/04 18:52:40;;;;;;;3.28;2.25;;;;;;;;;;10415265;28;20036;-67
2022/09/04 18:58:22;;;;;;;5.38;2.63;;;;;;;;;;10407205;28;20041;-68
2022/09/04 19:03:30;;;;;;;4.97;2.92;;;;;;;;;;10424796;28;20592;-66
2022/09/04 19:08:33;;;;;;;;;;;;;;;;;;10406656;28;20026;-50
2022/09/04 19:13:50;;;;;;;2.85;2.20;;;;;;;;;;10405821;28;19913;-49
2022/09/04 19:19:03;;;;;;;3.58;2.15;;;;;;;;;;10391863;28;20029;-50
2022/09/04 19:24:14;;;;;;;2.60;2.03;;;;;;;;;;10405685;28;20034;-49
2022/09/04 19:29:27;;;;;;;3.45;2.10;;;;;;;;;;10408901;28;20029;-49
2022/09/04 19:34:40;;;;;;;4.28;2.10;;;;;;;;;;10412661;28;20040;-49
2022/09/04 19:40:00;;;;;;;8.25;2.53;;;;;;;;;;10399378;28;20140;-49
2022/09/04 19:45:06;;;;;;;4.80;2.30;;;;;;;;;;10412774;28;20045;-48
2022/09/04 19:50:18;;;;;;;4.57;2.13;;;;;;;;;;10410280;28;20072;-49
2022/09/04 19:55:34;;;;;;;5.22;1.90;;;;;;;;;;10416638;28;20041;-49
2022/09/04 20:00:56;;;;;;;5.60;2.30;;;;;;;;;;10413201;28;20040;-49
2022/09/04 20:06:20;;;;;;;7.20;2.40;;;;;;;;;;10397263;28;20093;-49
2022/09/04 20:11:38;;;;;;;4.05;2.45;;;;;;;;;;10413869;28;20041;-50
2022/09/04 20:16:50;;;;;;;2.92;2.13;;;;;;;;;;10406390;28;20362;-51
2022/09/04 20:21:53;;;;;;;6.68;2.60;;;;;;;;;;10404324;28;20378;-52
2022/09/04 20:27:06;;;;;;;3.38;2.40;;;;;;;;;;10410918;28;20025;-49
2022/09/04 20:32:21;;;;;;;4.30;2.28;;;;;;;;;;10416648;28;20037;-51
2022/09/04 20:37:53;;;;;;;6.28;2.00;;;;;;;;;;10407221;28;20060;-49
2022/09/04 20:43:02;;;;;;;20.30;2.40;;;;;;;;;;10388689;28;20051;-56
2022/09/04 20:48:17;;;;;;;3.35;2.22;;;;;;;;;;10393118;28;20487;-54
2022/09/04 20:53:35;;;;;;;5.78;2.58;;;;;;;;;;10400032;28;20059;-53
2022/09/04 20:58:39;;;;;;;;;;;;;;;;;;10417690;28;20084;-58
2022/09/04 21:03:58;;;;;;;19.63;3.10;;;;;;;;;;10418359;28;19917;-59
2022/09/04 21:09:11;;;;;;;5.03;2.72;;;;;;;;;;10449223;28;20433;-57
2022/09/04 21:14:18;;;;;;;5.50;2.88;;;;;;;;;;10409113;28;20034;-56
2022/09/04 21:19:31;;;;;;;4.68;2.95;;;;;;;;;;10420818;28;20120;-59
2022/09/04 21:24:37;;;;;;;6.07;3.05;;;;;;;;;;10411002;28;20129;-55
2022/09/04 21:30:05;;;;;;;5.72;3.63;;;;;;;;;;10421292;28;20413;-58
2022/09/04 21:35:20;;;;;;;5.43;3.70;;;;;;;;;;10418002;28;20029;-59
2022/09/04 21:40:41;;;;;;;7.80;4.75;;;;;;;;;;10395206;28;20091;-60
2022/09/04 21:45:50;;;;;;;8.65;5.07;;;;;;;;;;10407482;28;20029;-59
2022/09/04 21:51:14;;;;;;;8.63;5.00;;;;;;;;;;10417493;28;20472;-52
2022/09/04 21:56:33;;;;;;;11.30;5.60;;;;;;;;;;10374063;28;20591;-55
2022/09/04 22:01:58;;;;;;;10.82;6.07;;;;;;;;;;10393632;28;20041;-51
2022/09/04 22:07:05;;;;;;;9.15;5.93;;;;;;;;;;10417575;28;20030;-55
2022/09/04 22:12:22;;;;;;;7.07;5.30;;;;;;;;;;10409421;28;20036;-52
2022/09/04 22:17:34;;;;;;;9.38;4.97;;;;;;;;;;10378555;28;20467;-54
2022/09/04 22:23:07;;;;;;;10.57;5.20;;;;;;;;;;10392632;28;20400;-54
2022/09/04 22:28:48;;;;;;;9.00;5.75;;;;;;;;;;10391606;28;20116;-54
2022/09/04 22:33:52;;;;;;;8.77;5.20;;;;;;;;;;10387347;28;20568;-55
2022/09/04 22:39:20;;;;;;;7.30;4.93;;;;;;;;;;10390367;28;20125;-53
2022/09/04 22:44:47;;;;;;;8.50;5.15;;;;;;;;;;10409906;28;20034;-53
2022/09/04 22:50:37;;;;;;;8.77;4.90;;;;;;;;;;10406103;28;20099;-52
2022/09/04 22:55:57;;;;;;;9.85;4.57;;;;;;;;;;10400840;28;20042;-54
2022/09/04 23:01:16;;;;;;;6.35;3.95;;;;;;;;;;10407594;28;20044;-54
2022/09/04 23:06:55;;;;;;;6.32;4.43;;;;;;;;;;10420293;28;20036;-54
2022/09/04 23:12:01;;;;;;;9.32;4.65;;;;;;;;;;10407975;28;20374;-55
2022/09/04 23:17:15;;;;;;;9.10;4.70;;;;;;;;;;10412403;28;20029;-54
2022/09/04 23:22:41;;;;;;;8.63;4.97;;;;;;;;;;10420641;28;20030;-50
2022/09/04 23:28:01;;;;;;;8.70;4.95;;;;;;;;;;10421295;28;20061;-53
2022/09/04 23:33:24;;;;;;;8.45;4.65;;;;;;;;;;10413181;28;20523;-51
2022/09/04 23:38:27;;;;;;;7.38;4.07;;;;;;;;;;10432559;28;20412;-58
2022/09/04 23:43:41;;;;;;;7.32;4.63;;;;;;;;;;10412106;28;20029;-57
2022/09/04 23:49:06;;;;;;;9.05;4.35;;;;;;;;;;10411944;28;20029;-49
2022/09/04 23:54:39;;;;;;;9.00;3.83;;;;;;;;;;10414875;28;20028;-49
